Time;durP1;ratioP1;P1;durP2;ratioP2;P2;SDS_P1;SDS_P2;PMS_P1;PMS_P2;Temp;Humidity;BMP_temperature;BMP_pressure;BME280_temperature;BME280_humidity;BME280_pressure;Samples;Min_cycle;Max_cycle;Signal;HPM_P1;HPM_P2
2022/11/21 00:00:29;;;;;;;6.25;1.20;;;5.60;99.90;;;;;;5058792;28;20111;-63
2022/11/21 00:02:58;;;;;;;9.10;1.20;;;5.60;99.90;;;;;;5051831;28;20036;-63
2022/11/21 00:05:24;;;;;;;7.60;1.63;;;5.60;99.90;;;;;;5058575;28;20017;-64
2022/11/21 00:07:51;;;;;;;6.25;1.00;;;5.70;99.90;;;;;;5065646;28;20017;-63
2022/11/21 00:10:16;;;;;;;5.13;1.15;;;5.60;99.90;;;;;;5054604;28;20493;-63
2022/11/21 00:12:42;;;;;;;4.95;1.10;;;5.60;99.90;;;;;;5061282;28;20087;-63
2022/11/21 00:15:08;;;;;;;6.72;1.15;;;5.60;99.90;;;;;;5057996;28;20448;-63
2022/11/21 00:17:34;;;;;;;8.02;1.13;;;5.70;99.90;;;;;;5057286;28;20045;-64
2022/11/21 00:20:00;;;;;;;6.15;1.10;;;5.70;99.90;;;;;;5062166;28;20313;-63
2022/11/21 00:22:26;;;;;;;7.75;1.60;;;5.60;99.90;;;;;;5054520;28;20025;-63
2022/11/21 00:24:52;;;;;;;6.95;0.93;;;5.60;99.90;;;;;;5052929;28;20025;-64
2022/11/21 00:27:17;;;;;;;10.07;1.50;;;5.50;99.90;;;;;;5056629;28;20029;-63
2022/11/21 00:29:43;;;;;;;10.30;1.52;;;5.40;99.90;;;;;;5053664;28;20029;-63
2022/11/21 00:32:09;;;;;;;5.72;1.55;;;5.30;99.90;;;;;;5057710;28;20062;-63
2022/11/21 00:34:34;;;;;;;7.75;1.35;;;5.30;99.90;;;;;;5056115;28;20396;-63
2022/11/21 00:37:00;;;;;;;4.63;0.75;;;5.20;99.90;;;;;;5058351;28;20025;-64
2022/11/21 00:39:26;;;;;;;5.20;1.20;;;5.10;99.90;;;;;;5060877;28;20487;-63
2022/11/21 00:41:52;;;;;;;5.40;1.75;;;5.00;99.90;;;;;;5050632;28;20045;-64
2022/11/21 00:44:17;;;;;;;7.80;1.27;;;4.80;99.90;;;;;;5052799;28;20468;-63
2022/11/21 00:46:43;;;;;;;3.28;1.00;;;4.70;99.90;;;;;;5053557;28;20035;-63
2022/11/21 00:49:09;;;;;;;8.90;1.17;;;4.60;99.90;;;;;;5060397;28;20029;-63
2022/11/21 00:51:35;;;;;;;19.10;1.85;;;4.60;99.90;;;;;;5057700;28;20024;-63
2022/11/21 00:54:01;;;;;;;5.57;0.85;;;4.60;99.90;;;;;;5061628;28;20066;-63
2022/11/21 00:56:27;;;;;;;1.65;1.00;;;4.60;99.90;;;;;;5060528;28;20038;-63
2022/11/21 00:58:52;;;;;;;11.13;1.80;;;4.60;99.90;;;;;;5042826;28;20620;-63
2022/11/21 01:01:18;;;;;;;8.60;1.85;;;4.60;99.90;;;;;;5057626;28;20041;-63
2022/11/21 01:03:45;;;;;;;7.45;1.05;;;4.70;99.90;;;;;;5060039;28;20032;-63
2022/11/21 01:06:13;;;;;;;8.48;1.08;;;4.70;99.90;;;;;;5057585;28;20087;-63
2022/11/21 01:08:41;;;;;;;8.07;0.98;;;4.60;99.90;;;;;;5060854;28;20032;-63
2022/11/21 01:11:16;;;;;;;7.53;1.35;;;4.60;99.90;;;;;;5059798;28;20476;-63
2022/11/21 01:13:42;;;;;;;2.47;0.70;;;4.60;99.90;;;;;;5059725;28;20107;-63
2022/11/21 01:16:09;;;;;;;6.35;1.73;;;4.60;99.90;;;;;;5056217;28;20045;-63
2022/11/21 01:18:36;;;;;;;9.70;1.20;;;4.70;99.90;;;;;;5050068;28;20056;-63
2022/11/21 01:21:04;;;;;;;8.48;1.15;;;4.70;99.90;;;;;;5056871;28;20116;-63
2022/11/21 01:23:30;;;;;;;11.85;1.67;;;4.70;99.90;;;;;;5066748;28;20028;-63
2022/11/21 01:26:01;;;;;;;10.20;1.13;;;4.80;99.90;;;;;;5060044;28;20028;-63
2022/11/21 01:28:27;;;;;;;9.47;1.60;;;4.80;99.90;;;;;;5036807;28;20037;-63
2022/11/21 01:30:53;;;;;;;8.82;1.30;;;4.90;99.90;;;;;;5050938;28;20844;-63
2022/11/21 01:33:18;;;;;;;8.15;1.88;;;5.00;99.90;;;;;;5060834;28;20104;-63
2022/11/21 01:35:44;;;;;;;7.95;1.90;;;5.10;99.90;;;;;;5059743;28;20021;-63
2022/11/21 01:38:10;;;;;;;9.23;1.85;;;5.20;99.90;;;;;;5053752;28;20043;-63
2022/11/21 01:40:39;;;;;;;6.55;1.73;;;5.40;99.90;;;;;;5050748;28;20040;-63
2022/11/21 01:43:13;;;;;;;12.18;2.13;;;5.50;99.90;;;;;;5059256;28;20020;-63
2022/11/21 01:45:51;;;;;;;6.80;1.10;;;5.60;99.90;;;;;;5044290;28;20028;-63
2022/11/21 01:48:17;;;;;;;6.40;1.95;;;5.60;99.90;;;;;;5069686;28;20024;-63
2022/11/21 01:50:43;;;;;;;9.80;1.80;;;5.70;99.90;;;;;;5060543;28;20490;-63
2022/11/21 01:53:09;;;;;;;9.55;1.70;;;5.70;99.90;;;;;;5052538;28;20029;-63
2022/11/21 01:55:35;;;;;;;9.10;1.92;;;5.70;99.90;;;;;;5054532;28;20032;-63
2022/11/21 01:58:01;;;;;;;6.70;1.30;;;5.70;99.90;;;;;;5060849;28;20024;-63
2022/11/21 02:00:31;;;;;;;10.85;1.88;;;5.80;99.90;;;;;;5057211;28;20072;-63
2022/11/21 02:03:01;;;;;;;8.55;1.50;;;5.80;99.90;;;;;;5053210;28;20029;-63
2022/11/21 02:05:30;;;;;;;9.38;1.30;;;5.70;99.90;;;;;;5055253;28;20535;-63
2022/11/21 02:08:01;;;;;;;8.05;2.33;;;5.70;99.90;;;;;;5052652;28;20021;-62
2022/11/21 02:10:27;;;;;;;4.43;0.93;;;5.60;99.90;;;;;;5052501;28;20117;-63
2022/11/21 02:12:56;;;;;;;15.02;2.30;;;5.50;99.90;;;;;;5054557;28;20392;-63
2022/11/21 02:15:25;;;;;;;10.07;1.75;;;5.40;99.90;;;;;;5060178;28;20070;-63
2022/11/21 02:17:51;;;;;;;3.88;1.40;;;5.30;99.90;;;;;;5046195;28;20020;-62
2022/11/21 02:20:19;;;;;;;7.40;1.60;;;5.20;99.90;;;;;;5056563;28;20025;-62
2022/11/21 02:22:51;;;;;;;12.73;3.17;;;5.10;99.90;;;;;;5062621;28;20017;-63
2022/11/21 02:25:33;;;;;;;7.30;2.22;;;5.10;99.90;;;;;;5063411;28;20024;-63
2022/11/21 02:28:04;;;;;;;;;;;5.00;99.90;;;;;;5042878;28;20029;-63
2022/11/21 02:30:33;;;;;;;6.78;2.30;;;4.90;99.90;;;;;;5045082;28;19909;-63
2022/11/21 02:32:59;;;;;;;4.40;1.70;;;4.80;99.90;;;;;;5062037;28;20025;-63
2022/11/21 02:35:25;;;;;;;11.10;2.47;;;4.70;99.90;;;;;;5058310;28;20476;-63
2022/11/21 02:37:58;;;;;;;10.75;2.03;;;4.60;99.90;;;;;;5063466;28;20028;-63
2022/11/21 02:40:33;;;;;;;8.32;2.22;;;4.60;99.90;;;;;;5050368;28;20030;-63
2022/11/21 02:43:08;;;;;;;6.00;2.10;;;4.60;99.90;;;;;;5058921;28;20044;-63
2022/11/21 02:45:38;;;;;;;10.35;2.35;;;4.50;99.90;;;;;;5057680;28;20079;-63
2022/11/21 02:48:04;;;;;;;3.85;1.80;;;4.50;99.90;;;;;;5061031;28;20111;-63
2022/11/21 02:50:32;;;;;;;9.98;4.78;;;4.50;99.90;;;;;;5053359;28;20112;-63
2022/11/21 02:52:58;;;;;;;3.47;1.48;;;4.60;99.90;;;;;;5056889;28;20060;-63
2022/11/21 02:55:24;;;;;;;8.90;2.90;;;4.60;99.90;;;;;;5054033;28;20385;-63
2022/11/21 02:57:50;;;;;;;11.20;2.22;;;4.60;99.90;;;;;;5057509;28;20032;-63
2022/11/21 03:00:17;;;;;;;4.63;2.15;;;4.60;99.90;;;;;;5057834;28;20025;-63
2022/11/21 03:02:42;;;;;;;12.77;2.70;;;4.60;99.90;;;;;;5053526;28;20477;-63
2022/11/21 03:05:10;;;;;;;9.13;3.60;;;4.60;99.90;;;;;;5055756;28;20029;-63
2022/11/21 03:07:36;;;;;;;9.40;3.13;;;4.50;99.90;;;;;;5059224;28;20031;-63
2022/11/21 03:10:02;;;;;;;6.07;2.00;;;4.50;99.90;;;;;;5054836;28;20021;-63
2022/11/21 03:12:27;;;;;;;6.32;1.52;;;4.50;99.90;;;;;;5059627;28;20033;-63
2022/11/21 03:14:53;;;;;;;5.78;1.63;;;4.50;99.90;;;;;;5057886;28;20528;-63
2022/11/21 03:17:19;;;;;;;11.25;2.05;;;4.50;99.90;;;;;;5054495;28;20047;-63
2022/11/21 03:19:45;;;;;;;5.28;1.90;;;4.50;99.90;;;;;;5055611;28;20424;-63
2022/11/21 03:22:12;;;;;;;8.63;1.88;;;4.50;99.90;;;;;;5064310;28;20519;-63
2022/11/21 03:24:37;;;;;;;8.73;3.25;;;4.50;99.90;;;;;;5054945;28;20087;-63
2022/11/21 03:27:03;;;;;;;5.20;1.60;;;4.50;99.90;;;;;;5046576;28;20037;-63
2022/11/21 03:29:29;;;;;;;3.60;1.80;;;4.50;99.90;;;;;;5058640;28;20087;-63
2022/11/21 03:31:55;;;;;;;2.65;1.27;;;4.50;99.90;;;;;;5063530;28;20086;-63
2022/11/21 03:34:20;;;;;;;5.45;1.10;;;4.50;99.90;;;;;;5068979;28;20016;-63
2022/11/21 03:36:46;;;;;;;7.68;1.73;;;4.40;99.90;;;;;;5056706;28;20032;-63
2022/11/21 03:39:12;;;;;;;3.88;1.35;;;4.40;99.90;;;;;;5056849;28;20072;-63
2022/11/21 03:41:37;;;;;;;8.23;1.65;;;4.40;99.90;;;;;;5061556;28;20029;-63
2022/11/21 03:44:08;;;;;;;6.97;1.85;;;4.40;99.90;;;;;;5058085;28;20060;-63
2022/11/21 03:46:36;;;;;;;7.25;1.80;;;4.40;99.90;;;;;;5047205;28;20025;-63
2022/11/21 03:49:02;;;;;;;11.45;2.40;;;4.40;99.90;;;;;;5057895;28;20434;-63
2022/11/21 03:51:29;;;;;;;10.57;2.53;;;4.50;99.90;;;;;;5061199;28;20414;-63
2022/11/21 03:53:54;;;;;;;8.13;2.13;;;4.50;99.90;;;;;;5053440;28;20481;-63
2022/11/21 03:56:21;;;;;;;5.90;1.95;;;4.50;99.90;;;;;;5065405;28;20028;-63
2022/11/21 03:58:47;;;;;;;5.20;1.95;;;4.50;99.90;;;;;;5055551;28;20098;-63
2022/11/21 04:01:13;;;;;;;5.00;1.77;;;4.50;99.90;;;;;;5062554;28;20476;-63
2022/11/21 04:03:41;;;;;;;3.65;1.73;;;4.50;99.90;;;;;;5059837;28;20031;-63
2022/11/21 04:06:07;;;;;;;9.73;2.60;;;4.50;99.90;;;;;;5057900;28;20070;-63
2022/11/21 04:08:34;;;;;;;3.35;2.08;;;4.60;99.90;;;;;;5065369;28;20019;-63
2022/11/21 04:10:59;;;;;;;7.82;2.08;;;4.60;99.90;;;;;;5059326;28;20051;-63
2022/11/21 04:13:25;;;;;;;5.65;2.60;;;4.60;99.90;;;;;;5048032;28;20520;-64
2022/11/21 04:15:51;;;;;;;5.15;2.03;;;4.70;99.90;;;;;;5049067;28;20048;-63
2022/11/21 04:18:17;;;;;;;8.13;2.00;;;4.60;99.90;;;;;;5051387;28;20387;-63
2022/11/21 04:20:43;;;;;;;6.90;2.72;;;4.50;99.90;;;;;;5060532;28;20060;-63
2022/11/21 04:23:08;;;;;;;8.05;2.33;;;4.40;99.90;;;;;;5056590;28;20025;-63
2022/11/21 04:25:34;;;;;;;8.80;2.13;;;4.30;99.90;;;;;;5057867;28;20025;-59
2022/11/21 04:28:02;;;;;;;7.20;2.25;;;4.30;99.90;;;;;;5054795;28;20070;-64
2022/11/21 04:30:28;;;;;;;6.60;2.28;;;4.40;99.90;;;;;;5057782;28;20049;-63
2022/11/21 04:32:55;;;;;;;9.63;1.95;;;4.30;99.90;;;;;;5062988;28;20707;-62
2022/11/21 04:35:22;;;;;;;6.35;1.65;;;4.30;99.90;;;;;;5055903;28;20025;-63
2022/11/21 04:37:48;;;;;;;6.25;2.13;;;4.30;99.90;;;;;;5064407;28;20025;-63
2022/11/21 04:40:15;;;;;;;6.13;1.85;;;4.20;99.90;;;;;;5061753;28;20503;-63
2022/11/21 04:42:45;;;;;;;9.32;2.25;;;4.20;99.90;;;;;;5053762;28;20083;-64
2022/11/21 04:45:12;;;;;;;6.20;2.20;;;4.20;99.90;;;;;;5055586;28;20056;-63
2022/11/21 04:47:39;;;;;;;9.90;2.75;;;4.20;99.90;;;;;;5065259;28;20040;-61
2022/11/21 04:50:05;;;;;;;5.53;1.67;;;4.10;99.90;;;;;;5044542;28;20028;-63
2022/11/21 04:52:31;;;;;;;6.70;2.05;;;4.10;99.90;;;;;;5057567;28;20431;-62
2022/11/21 04:54:58;;;;;;;7.53;2.30;;;4.10;99.90;;;;;;5057058;28;20171;-62
2022/11/21 04:57:24;;;;;;;11.13;2.28;;;4.10;99.90;;;;;;5056533;28;20112;-62
2022/11/21 04:59:50;;;;;;;5.57;1.60;;;4.20;99.90;;;;;;5055119;28;20424;-64
2022/11/21 05:02:16;;;;;;;5.40;1.80;;;4.20;99.90;;;;;;5056858;28;20043;-64
2022/11/21 05:04:42;;;;;;;5.55;1.70;;;4.20;99.90;;;;;;5051259;28;20029;-62
2022/11/21 05:07:07;;;;;;;5.65;2.03;;;4.20;99.90;;;;;;5055782;28;20112;-63
2022/11/21 05:09:33;;;;;;;11.95;2.33;;;4.20;99.90;;;;;;5054237;28;20114;-64
2022/11/21 05:14:43;;;;;;;5.55;1.60;;;4.20;99.90;;;;;;5062802;28;20137;-64
2022/11/21 05:17:09;;;;;;;7.00;1.63;;;4.10;99.90;;;;;;5063140;28;20515;-62
2022/11/21 05:19:35;;;;;;;4.05;1.67;;;4.10;99.90;;;;;;5052345;28;20031;-63
2022/11/21 05:22:00;;;;;;;5.03;1.88;;;4.10;99.90;;;;;;5059962;28;20124;-63
2022/11/21 05:24:26;;;;;;;6.43;2.15;;;4.20;99.90;;;;;;5059573;28;20033;-62
2022/11/21 05:26:53;;;;;;;6.97;2.10;;;4.30;99.90;;;;;;5055600;28;20037;-62
2022/11/21 05:29:20;;;;;;;7.80;2.47;;;4.40;99.90;;;;;;5051780;28;20029;-62
2022/11/21 05:31:45;;;;;;;6.35;2.17;;;4.50;99.90;;;;;;5052215;28;20029;-62
2022/11/21 05:34:11;;;;;;;8.80;1.98;;;4.60;99.90;;;;;;5055853;28;20029;-63
2022/11/21 05:36:37;;;;;;;10.43;2.45;;;4.70;99.90;;;;;;5048249;28;20036;-62
2022/11/21 05:39:03;;;;;;;10.27;2.88;;;4.70;99.90;;;;;;5049073;28;20381;-62
2022/11/21 05:41:29;;;;;;;8.02;2.42;;;4.80;99.90;;;;;;5063124;28;20503;-62
2022/11/21 05:43:55;;;;;;;6.80;2.45;;;4.80;99.90;;;;;;5049967;28;20036;-62
2022/11/21 05:46:22;;;;;;;7.38;2.53;;;4.90;99.90;;;;;;5057223;28;20036;-63
2022/11/21 05:48:49;;;;;;;5.32;2.30;;;4.90;99.90;;;;;;5051025;28;20112;-62
2022/11/21 05:51:16;;;;;;;9.48;2.58;;;5.00;99.90;;;;;;5052036;28;20385;-62
2022/11/21 05:53:42;;;;;;;3.20;2.22;;;5.00;99.90;;;;;;5058956;28;20043;-62
2022/11/21 05:56:14;;;;;;;7.20;2.03;;;5.10;99.90;;;;;;5058152;28;20519;-62
2022/11/21 05:58:41;;;;;;;5.88;1.92;;;5.10;99.90;;;;;;5052436;28;20044;-62
2022/11/21 06:01:08;;;;;;;8.10;2.70;;;5.20;99.90;;;;;;5049541;28;21245;-62
2022/11/21 06:03:37;;;;;;;13.93;2.45;;;5.20;99.90;;;;;;5059357;28;20101;-62
2022/11/21 06:06:07;;;;;;;8.38;1.90;;;5.20;99.90;;;;;;5049997;28;20068;-63
2022/11/21 06:08:42;;;;;;;6.80;2.42;;;5.30;99.90;;;;;;5045815;28;20494;-63
2022/11/21 06:11:10;;;;;;;12.30;3.08;;;5.30;99.90;;;;;;5048983;28;20047;-63
2022/11/21 06:13:36;;;;;;;6.90;2.25;;;5.40;99.90;;;;;;5048231;28;20105;-63
2022/11/21 06:16:13;;;;;;;9.38;2.70;;;5.50;99.90;;;;;;5040208;28;20056;-62
2022/11/21 06:18:44;;;;;;;7.20;2.60;;;5.50;99.90;;;;;;5043965;28;20029;-63
2022/11/21 06:21:21;;;;;;;7.22;2.45;;;5.50;99.90;;;;;;5052449;28;20519;-64
2022/11/21 06:23:50;;;;;;;5.75;2.10;;;5.40;99.90;;;;;;5054265;28;20064;-64
2022/11/21 06:26:18;;;;;;;9.70;2.60;;;5.50;99.90;;;;;;5052127;28;20026;-64
2022/11/21 06:28:45;;;;;;;10.20;3.08;;;5.50;99.90;;;;;;5050387;28;20070;-64
2022/11/21 06:31:13;;;;;;;8.43;3.47;;;5.50;99.90;;;;;;5043136;28;20057;-63
2022/11/21 06:33:39;;;;;;;11.15;2.67;;;5.50;99.90;;;;;;5046180;28;20024;-63
2022/11/21 06:36:07;;;;;;;11.68;2.70;;;5.50;99.90;;;;;;5045710;28;20040;-63
2022/11/21 06:38:33;;;;;;;7.65;2.58;;;5.50;99.90;;;;;;5044657;28;20048;-63
2022/11/21 06:41:07;;;;;;;4.35;2.85;;;5.50;99.90;;;;;;5039562;28;20074;-63
2022/11/21 06:43:32;;;;;;;8.18;3.20;;;5.60;99.90;;;;;;5041318;28;20116;-62
2022/11/21 06:45:58;;;;;;;6.70;2.40;;;5.60;99.90;;;;;;5044710;28;20238;-62
2022/11/21 06:48:24;;;;;;;7.43;3.20;;;5.60;99.90;;;;;;5040941;28;20477;-62
2022/11/21 06:50:50;;;;;;;6.22;2.53;;;5.60;99.90;;;;;;5052173;28;20044;-63
2022/11/21 06:53:16;;;;;;;8.68;2.97;;;5.50;99.90;;;;;;5052179;28;20036;-62
2022/11/21 06:55:42;;;;;;;10.23;3.00;;;5.50;99.90;;;;;;5050273;28;20028;-61
2022/11/21 06:58:07;;;;;;;5.88;2.83;;;5.50;99.90;;;;;;5047618;28;20043;-63
2022/11/21 07:00:33;;;;;;;9.48;3.30;;;5.50;99.90;;;;;;5051919;28;20052;-63
2022/11/21 07:03:01;;;;;;;9.73;3.15;;;5.60;99.90;;;;;;5046057;28;20036;-63
2022/11/21 07:05:27;;;;;;;8.88;4.13;;;5.60;99.90;;;;;;5059791;28;20021;-62
2022/11/21 07:08:02;;;;;;;11.25;2.90;;;5.70;99.90;;;;;;5057902;28;20029;-63
2022/11/21 07:10:29;;;;;;;14.30;3.40;;;5.70;99.90;;;;;;5054498;28;20451;-63
2022/11/21 07:15:47;;;;;;;10.25;2.95;;;5.80;99.90;;;;;;5061410;28;20039;-63
2022/11/21 07:18:13;;;;;;;11.23;2.55;;;5.80;99.90;;;;;;5052149;28;20119;-63
2022/11/21 07:20:40;;;;;;;6.70;3.70;;;5.80;99.90;;;;;;5056036;28;20132;-63
2022/11/21 07:23:07;;;;;;;9.90;3.35;;;5.80;99.90;;;;;;5053882;28;20036;-64
2022/11/21 07:25:33;;;;;;;7.95;2.83;;;5.90;99.90;;;;;;5049525;28;20104;-63
2022/11/21 07:28:00;;;;;;;10.13;2.40;;;5.80;99.90;;;;;;5052160;28;20455;-63
2022/11/21 07:30:27;;;;;;;12.18;2.75;;;5.90;99.90;;;;;;5048246;28;20024;-63
2022/11/21 07:32:57;;;;;;;12.35;3.78;;;5.90;99.90;;;;;;5059306;28;20052;-63
2022/11/21 07:35:23;;;;;;;12.40;3.00;;;5.90;99.90;;;;;;5052713;28;20380;-62
2022/11/21 07:37:49;;;;;;;9.82;2.88;;;6.00;99.90;;;;;;5049851;28;20029;-64
2022/11/21 07:40:15;;;;;;;10.02;3.17;;;6.10;99.90;;;;;;5051178;28;20036;-63
2022/11/21 07:42:41;;;;;;;8.05;2.20;;;6.10;99.90;;;;;;5058122;28;20028;-63
2022/11/21 07:45:07;;;;;;;8.80;1.85;;;6.10;99.90;;;;;;5044829;28;20029;-63
2022/11/21 07:47:33;;;;;;;12.95;2.95;;;6.20;99.90;;;;;;5050934;28;20029;-61
2022/11/21 07:49:59;;;;;;;9.55;2.45;;;6.20;99.90;;;;;;5055025;28;20111;-65
2022/11/21 07:52:25;;;;;;;6.65;2.85;;;6.30;99.90;;;;;;5061363;28;20032;-64
2022/11/21 07:54:57;;;;;;;9.55;3.00;;;6.30;99.90;;;;;;5048109;28;20487;-63
2022/11/21 07:57:24;;;;;;;11.68;2.97;;;6.30;99.90;;;;;;5048379;28;20025;-63
2022/11/21 07:59:49;;;;;;;11.48;3.38;;;6.40;99.90;;;;;;5059252;28;20060;-63
2022/11/21 08:02:20;;;;;;;10.73;3.30;;;6.50;99.90;;;;;;5056024;28;20056;-62
2022/11/21 08:04:46;;;;;;;10.57;3.15;;;6.50;99.90;;;;;;5048124;28;20303;-62
2022/11/21 08:07:16;;;;;;;8.95;3.38;;;6.50;99.90;;;;;;5041968;28;20733;-63
2022/11/21 08:09:42;;;;;;;10.05;3.20;;;6.50;99.90;;;;;;5050359;28;20476;-62
2022/11/21 08:12:09;;;;;;;6.70;3.25;;;6.50;99.90;;;;;;5044483;28;20056;-63
2022/11/21 08:14:35;;;;;;;14.02;3.35;;;6.60;99.90;;;;;;5043417;28;20020;-62
2022/11/21 08:17:02;;;;;;;9.73;3.17;;;6.50;99.90;;;;;;5043570;28;20190;-62
2022/11/21 08:19:37;;;;;;;8.63;2.70;;;6.60;99.90;;;;;;5043147;28;20033;-63
2022/11/21 08:22:02;;;;;;;7.47;2.95;;;6.60;99.90;;;;;;5045217;28;20033;-62
2022/11/21 08:24:28;;;;;;;11.32;2.58;;;6.60;99.90;;;;;;5038285;28;20052;-63
2022/11/21 08:26:57;;;;;;;7.60;2.83;;;6.60;99.90;;;;;;5047764;28;20028;-63
2022/11/21 08:29:24;;;;;;;8.05;3.22;;;6.70;99.90;;;;;;5047947;28;20026;-63
2022/11/21 08:31:50;;;;;;;9.38;3.10;;;6.70;99.90;;;;;;5045683;28;20364;-63
2022/11/21 08:34:16;;;;;;;7.80;3.20;;;6.80;99.90;;;;;;5051475;28;20029;-63
2022/11/21 08:36:42;;;;;;;9.20;3.50;;;6.80;99.90;;;;;;5052622;28;20029;-64
2022/11/21 08:39:08;;;;;;;12.88;2.75;;;6.90;99.90;;;;;;5048112;28;20141;-62
2022/11/21 08:44:18;;;;;;;19.95;3.45;;;7.90;99.90;;;;;;5040278;28;20079;-64
2022/11/21 08:46:44;;;;;;;17.17;3.00;;;8.70;99.90;;;;;;5042365;28;20017;-63
2022/11/21 08:49:09;;;;;;;21.02;3.47;;;9.00;99.90;;;;;;5044934;28;20025;-63
2022/11/21 08:51:35;;;;;;;6.80;2.13;;;9.30;99.90;;;;;;5050477;28;20025;-61
2022/11/21 08:54:01;;;;;;;17.13;2.83;;;9.40;99.90;;;;;;5048588;28;20493;-62
2022/11/21 08:56:27;;;;;;;12.35;3.08;;;9.60;99.90;;;;;;5048433;28;20079;-64
2022/11/21 08:58:54;;;;;;;25.80;2.83;;;9.70;99.90;;;;;;5054724;28;20112;-62
2022/11/21 09:01:20;;;;;;;17.92;2.92;;;9.90;99.90;;;;;;5052649;28;20048;-62
2022/11/21 09:03:46;;;;;;;12.05;2.03;;;10.00;99.90;;;;;;5050771;28;20400;-63
2022/11/21 09:06:12;;;;;;;14.38;3.92;;;10.20;99.90;;;;;;5049728;28;20037;-63
2022/11/21 09:08:38;;;;;;;9.27;2.08;;;10.30;99.90;;;;;;5052680;28;20028;-64
2022/11/21 09:11:08;;;;;;;13.95;2.50;;;10.30;99.90;;;;;;5051538;28;20059;-63
2022/11/21 09:13:35;;;;;;;21.08;2.67;;;10.40;99.90;;;;;;5057012;28;20503;-63
2022/11/21 09:18:46;;;;;;;13.15;3.10;;;10.40;99.90;;;;;;5048777;28;20140;-64
2022/11/21 09:21:19;;;;;;;10.65;2.80;;;10.40;99.90;;;;;;5046363;28;20116;-63
2022/11/21 09:23:45;;;;;;;21.80;3.05;;;10.40;99.90;;;;;;5045864;28;20029;-62
2022/11/21 09:26:11;;;;;;;13.57;3.25;;;10.40;99.90;;;;;;5049190;28;20111;-63
2022/11/21 09:28:37;;;;;;;16.55;2.22;;;10.40;99.90;;;;;;5059837;28;20028;-62
2022/11/21 09:31:04;;;;;;;10.30;2.05;;;10.50;99.90;;;;;;5060049;28;20021;-62
2022/11/21 09:33:30;;;;;;;11.20;2.97;;;10.60;99.90;;;;;;5055749;28;20028;-66
2022/11/21 09:36:00;;;;;;;13.68;1.90;;;10.60;99.90;;;;;;5047758;28;20058;-64
2022/11/21 09:38:26;;;;;;;12.55;2.50;;;10.70;99.90;;;;;;5044435;28;20059;-63
2022/11/21 09:41:50;;;;;;;16.75;2.92;;;10.60;99.90;;;;;;5057802;28;20042;-64
2022/11/21 09:44:18;;;;;;;16.13;2.28;;;10.70;99.90;;;;;;5051124;28;20459;-64
2022/11/21 09:46:48;;;;;;;14.18;2.17;;;10.70;99.90;;;;;;5039629;28;20028;-64
2022/11/21 09:49:14;;;;;;;14.23;2.50;;;10.70;99.90;;;;;;5047710;28;20018;-63
2022/11/21 09:51:42;;;;;;;12.60;3.25;;;10.60;99.90;;;;;;5057587;28;20032;-64
2022/11/21 09:54:15;;;;;;;12.00;3.08;;;10.60;99.90;;;;;;5042110;28;20511;-65
2022/11/21 09:56:42;;;;;;;25.73;3.17;;;10.60;99.90;;;;;;5051154;28;20036;-67
2022/11/21 09:59:23;;;;;;;11.48;3.00;;;10.50;99.90;;;;;;5046282;28;20112;-64
2022/11/21 10:01:49;;;;;;;11.43;3.13;;;10.40;99.90;;;;;;5050649;28;20044;-64
2022/11/21 10:04:15;;;;;;;14.57;2.25;;;10.10;99.90;;;;;;5052433;28;20078;-64
2022/11/21 10:06:54;;;;;;;12.82;1.83;;;9.90;99.90;;;;;;5049497;28;20419;-63
2022/11/21 10:09:22;;;;;;;11.93;1.77;;;9.80;99.90;;;;;;5042730;28;20426;-64
2022/11/21 10:15:06;;;;;;;16.05;3.67;;;9.70;99.90;;;;;;5037731;28;20064;-62
2022/11/21 10:18:10;;;;;;;15.05;2.88;;;9.70;99.90;;;;;;5039006;28;20049;-64
2022/11/21 10:21:09;;;;;;;16.77;2.45;;;9.90;99.90;;;;;;5050172;28;20087;-63
2022/11/21 10:23:47;;;;;;;27.13;4.13;;;10.00;99.90;;;;;;5054205;28;20044;-63
2022/11/21 10:26:25;;;;;;;14.52;2.97;;;10.10;99.90;;;;;;5045812;28;20059;-64
2022/11/21 10:28:55;;;;;;;18.70;3.28;;;10.20;99.90;;;;;;5039405;28;20500;-65
2022/11/21 10:31:21;;;;;;;11.45;2.95;;;10.30;99.90;;;;;;5047750;28;20036;-64
2022/11/21 10:33:50;;;;;;;16.10;2.90;;;10.30;99.90;;;;;;5043933;28;20060;-64
2022/11/21 10:36:36;;;;;;;12.73;2.33;;;10.30;99.90;;;;;;5044424;28;20025;-65
2022/11/21 10:39:25;;;;;;;21.27;4.75;;;10.40;99.90;;;;;;5033316;28;20029;-65
2022/11/21 10:42:15;;;;;;;17.40;3.15;;;10.40;99.90;;;;;;5026753;28;20049;-64
2022/11/21 10:47:32;;;;;;;10.10;2.38;;;10.40;99.90;;;;;;5034681;28;20044;-64
2022/11/21 10:50:21;;;;;;;15.43;2.30;;;10.40;99.90;;;;;;5032720;28;20040;-64
2022/11/21 10:53:02;;;;;;;13.20;2.00;;;10.40;99.90;;;;;;5035610;28;20100;-62
2022/11/21 10:55:27;;;;;;;11.45;2.40;;;10.40;99.90;;;;;;5038562;28;20543;-65
2022/11/21 10:57:54;;;;;;;11.05;2.20;;;10.40;99.90;;;;;;5038249;28;20132;-63
2022/11/21 11:00:26;;;;;;;12.50;2.22;;;10.50;99.90;;;;;;5052583;28;20048;-64
2022/11/21 11:02:54;;;;;;;19.33;3.60;;;10.50;99.90;;;;;;5047421;28;20029;-63
2022/11/21 11:05:30;;;;;;;21.58;2.95;;;10.50;99.90;;;;;;5059556;28;20551;-62
2022/11/21 11:08:01;;;;;;;15.50;3.67;;;10.50;99.90;;;;;;5034752;28;20152;-62
2022/11/21 11:10:26;;;;;;;14.73;2.90;;;10.50;99.90;;;;;;5045307;28;20029;-62
2022/11/21 11:15:51;;;;;;;13.23;2.58;;;10.50;99.90;;;;;;5043707;28;20396;-63
2022/11/21 11:18:20;;;;;;;11.55;2.33;;;10.50;99.90;;;;;;5041963;28;20025;-63
2022/11/21 11:20:46;;;;;;;12.55;2.33;;;10.40;99.90;;;;;;5046006;28;20137;-64
2022/11/21 11:23:21;;;;;;;12.25;2.42;;;10.40;99.90;;;;;;5035528;28;20548;-64
2022/11/21 11:25:54;;;;;;;15.45;2.83;;;10.30;99.90;;;;;;5042171;28;20137;-65
2022/11/21 11:28:20;;;;;;;13.00;2.33;;;10.30;99.90;;;;;;5037006;28;20108;-63
2022/11/21 11:30:51;;;;;;;12.75;2.50;;;10.20;99.90;;;;;;5042202;28;20388;-64
2022/11/21 11:33:37;;;;;;;13.93;3.38;;;10.10;99.90;;;;;;5035746;28;20136;-63
2022/11/21 11:36:24;;;;;;;15.63;2.58;;;10.10;99.90;;;;;;5029040;28;20022;-64
2022/11/21 11:38:59;;;;;;;17.20;2.58;;;10.10;99.90;;;;;;5037135;28;20026;-64
2022/11/21 11:47:29;;;;;;;20.13;3.40;;;10.00;99.90;;;;;;5055500;28;20479;-64
2022/11/21 11:47:38;;;;;;;18.48;2.33;;;9.90;99.90;;;;;;5045256;28;20132;-63
2022/11/21 11:50:31;;;;;;;15.45;2.08;;;9.90;99.90;;;;;;5043276;28;20033;-63
2022/11/21 11:53:12;;;;;;;14.55;2.95;;;9.90;99.90;;;;;;5049019;28;20445;-63
2022/11/21 11:56:04;;;;;;;10.68;2.28;;;9.90;99.90;;;;;;5051820;28;20419;-63
2022/11/21 11:59:11;;;;;;;15.75;2.15;;;9.90;99.90;;;;;;5036039;28;20068;-65
2022/11/21 12:01:59;;;;;;;14.43;2.20;;;9.90;99.90;;;;;;5058991;28;20481;-64
2022/11/21 12:04:30;;;;;;;18.58;2.03;;;9.80;99.90;;;;;;5052089;28;20029;-65
2022/11/21 12:07:02;;;;;;;13.90;2.47;;;9.80;99.90;;;;;;5051755;28;20032;-66
2022/11/21 12:09:34;;;;;;;12.48;2.35;;;9.70;99.90;;;;;;5055249;28;20033;-65
2022/11/21 12:12:08;;;;;;;10.02;2.38;;;9.60;99.90;;;;;;5045371;28;20029;-64
2022/11/21 12:18:01;;;;;;;13.35;2.85;;;9.20;99.90;;;;;;5062145;28;20067;-66
2022/11/21 12:20:54;;;;;;;8.57;1.65;;;9.10;99.90;;;;;;5050673;28;20033;-65
2022/11/21 12:23:22;;;;;;;6.85;0.93;;;9.00;99.90;;;;;;5048180;28;20503;-65
2022/11/21 12:26:04;;;;;;;7.35;1.50;;;8.80;99.90;;;;;;5045317;28;20373;-66
2022/11/21 12:28:56;;;;;;;15.57;2.33;;;8.60;99.90;;;;;;5059552;28;20047;-74
2022/11/21 12:31:25;;;;;;;11.02;2.80;;;8.50;99.90;;;;;;5065604;28;20059;-69
2022/11/21 12:33:57;;;;;;;10.63;1.92;;;8.50;99.90;;;;;;5052273;28;20430;-67
2022/11/21 12:36:28;;;;;;;8.70;1.50;;;8.50;99.90;;;;;;5048051;28;20021;-68
2022/11/21 12:38:57;;;;;;;5.40;0.88;;;8.40;99.90;;;;;;5038776;28;20523;-70
2022/11/21 12:44:46;;;;;;;8.07;1.25;;;8.30;99.90;;;;;;5036803;28;20045;-65
2022/11/21 12:54:29;;;;;;;3.17;0.68;;;8.30;99.90;;;;;;5041984;28;20020;-66
2022/11/21 12:56:55;;;;;;;4.38;1.00;;;8.10;99.90;;;;;;5040828;28;20068;-64
2022/11/21 12:59:23;;;;;;;6.35;1.35;;;8.20;99.90;;;;;;5053583;28;20419;-63
2022/11/21 13:02:16;;;;;;;6.10;2.45;;;8.20;99.90;;;;;;5048855;28;20119;-63
2022/11/21 13:04:44;;;;;;;5.82;1.63;;;8.30;99.90;;;;;;5061058;28;20029;-63
2022/11/21 13:07:11;;;;;;;5.03;1.20;;;8.10;99.90;;;;;;5056340;28;20045;-64
2022/11/21 13:09:40;;;;;;;5.65;0.75;;;8.10;99.90;;;;;;5045067;28;20025;-63
2022/11/21 13:12:27;;;;;;;4.22;0.90;;;8.00;99.90;;;;;;5058577;28;20033;-65
2022/11/21 13:15:00;;;;;;;5.47;1.88;;;8.10;99.90;;;;;;5050965;28;20365;-64
2022/11/21 13:17:39;;;;;;;11.93;2.40;;;8.10;99.90;;;;;;5060588;28;20048;-64
2022/11/21 13:20:13;;;;;;;4.03;0.95;;;8.10;99.90;;;;;;5044846;28;20477;-64
2022/11/21 13:22:39;;;;;;;10.13;2.42;;;8.10;99.90;;;;;;5061204;28;20037;-64
2022/11/21 13:25:11;;;;;;;8.27;1.45;;;8.10;99.90;;;;;;5062862;28;20074;-66
2022/11/21 13:27:41;;;;;;;6.60;1.83;;;8.20;99.90;;;;;;5051126;28;20493;-66
2022/11/21 13:30:07;;;;;;;9.52;2.42;;;8.20;99.90;;;;;;5050474;28;20468;-65
2022/11/21 13:32:39;;;;;;;7.40;2.65;;;8.20;99.90;;;;;;5055548;28;20040;-65
2022/11/21 13:35:20;;;;;;;4.25;1.27;;;8.20;99.90;;;;;;5048062;28;20029;-65
2022/11/21 13:37:49;;;;;;;8.32;1.83;;;8.10;99.90;;;;;;5053311;28;20032;-64